createdAt,value
2019-02-24T00:02:09.446Z,-0.77
2019-02-24T00:04:40.890Z,-0.71
2019-02-24T00:07:12.490Z,-0.63
2019-02-24T00:09:43.790Z,-0.60
2019-02-24T00:12:15.012Z,-0.59
2019-02-24T00:14:47.003Z,-0.55
2019-02-24T00:17:18.691Z,-0.60
2019-02-24T00:19:50.010Z,-0.51
2019-02-24T00:22:21.852Z,-0.48
2019-02-24T00:24:52.598Z,-0.49
2019-02-24T00:27:24.050Z,-0.57
2019-02-24T00:29:55.278Z,-0.57
2019-02-24T00:32:26.769Z,-0.57
2019-02-24T00:34:59.238Z,-0.61
2019-02-24T00:37:30.932Z,-0.65
2019-02-24T00:40:02.339Z,-0.65
2019-02-24T00:42:33.790Z,-0.65
2019-02-24T00:45:06.510Z,-0.64
2019-02-24T00:47:37.872Z,-0.62
2019-02-24T00:50:10.088Z,-0.60
2019-02-24T00:52:41.914Z,-0.62
2019-02-24T00:55:13.230Z,-0.60
2019-02-24T00:57:44.632Z,-0.62
2019-02-24T01:00:15.847Z,-0.60
2019-02-24T01:02:47.277Z,-0.56
2019-02-24T01:05:19.952Z,-0.53
2019-02-24T01:07:51.410Z,-0.52
2019-02-24T01:10:22.650Z,-0.47
2019-02-24T01:12:53.974Z,-0.45
2019-02-24T01:15:25.247Z,-0.44
2019-02-24T01:17:56.950Z,-0.46
2019-02-24T01:20:28.865Z,-0.44
2019-02-24T01:23:00.038Z,-0.42
2019-02-24T01:25:31.250Z,-0.46
2019-02-24T01:28:03.043Z,-0.47
2019-02-24T01:30:34.181Z,-0.46
2019-02-24T01:33:04.952Z,-0.41
2019-02-24T01:35:37.350Z,-0.37
2019-02-24T01:38:08.950Z,-0.42
2019-02-24T01:40:40.691Z,-0.35
2019-02-24T01:43:11.630Z,-0.37
2019-02-24T01:45:42.705Z,-0.29
2019-02-24T01:48:14.284Z,-0.26
2019-02-24T01:50:46.652Z,-0.20
2019-02-24T01:53:18.266Z,-0.12
2019-02-24T01:55:48.752Z,-0.10
2019-02-24T01:58:19.892Z,-0.09
2019-02-24T02:00:51.022Z,-0.03
2019-02-24T02:03:22.451Z,-0.03
2019-02-24T02:05:53.082Z,-0.03
2019-02-24T02:08:24.417Z,-0.03
2019-02-24T02:10:55.752Z,0.04
2019-02-24T02:13:26.457Z,-0.02
2019-02-24T02:15:57.717Z,0.03
2019-02-24T02:18:29.825Z,-0.02
2019-02-24T02:21:01.362Z,0.00
2019-02-24T02:23:32.297Z,0.02
2019-02-24T02:26:03.077Z,0.10
2019-02-24T02:28:34.351Z,0.13
2019-02-24T02:31:05.414Z,0.13
2019-02-24T02:33:38.162Z,0.10
2019-02-24T02:36:09.778Z,0.07
2019-02-24T02:38:41.937Z,0.10
2019-02-24T02:41:13.122Z,0.08
2019-02-24T02:43:44.341Z,0.05
2019-02-24T02:46:16.172Z,0.06
2019-02-24T02:48:47.123Z,0.09
2019-02-24T02:51:18.257Z,0.13
2019-02-24T02:53:49.541Z,0.15
2019-02-24T02:56:23.487Z,0.15
2019-02-24T02:58:54.945Z,0.19
2019-02-24T03:01:26.163Z,0.20
2019-02-24T03:03:57.096Z,0.19
2019-02-24T03:06:29.948Z,0.23
2019-02-24T03:09:01.042Z,0.27
2019-02-24T03:11:33.024Z,0.23
2019-02-24T03:14:04.298Z,0.23
2019-02-24T03:16:35.187Z,0.17
2019-02-24T03:19:07.149Z,0.10
2019-02-24T03:21:38.228Z,-0.04
2019-02-24T03:24:09.017Z,-0.04
2019-02-24T03:26:39.643Z,0.06
2019-02-24T03:29:10.490Z,0.11
2019-02-24T03:31:42.254Z,0.08
2019-02-24T03:34:13.514Z,0.10
2019-02-24T03:36:45.284Z,0.10
2019-02-24T03:39:16.028Z,0.13
2019-02-24T03:41:47.342Z,0.13
2019-02-24T03:44:19.082Z,0.18
2019-02-24T03:46:50.592Z,0.21
2019-02-24T03:49:21.667Z,0.21
2019-02-24T03:51:53.031Z,0.33
2019-02-24T03:54:24.103Z,0.33
2019-02-24T03:56:55.455Z,0.42
2019-02-24T03:59:26.534Z,0.42
2019-02-24T04:01:57.416Z,0.48
2019-02-24T04:04:28.606Z,0.49
2019-02-24T04:06:59.574Z,0.42
2019-02-24T04:09:30.902Z,0.38
2019-02-24T04:12:01.977Z,0.41
2019-02-24T04:14:34.227Z,0.48
2019-02-24T04:17:05.305Z,0.44
2019-02-24T04:19:36.469Z,0.33
2019-02-24T04:22:07.325Z,0.32
2019-02-24T04:24:38.050Z,0.27
2019-02-24T04:27:09.379Z,0.32
2019-02-24T04:29:40.867Z,0.40
2019-02-24T04:32:12.177Z,0.46
2019-02-24T04:34:43.062Z,0.52
2019-02-24T04:37:14.498Z,0.53
2019-02-24T04:39:45.777Z,0.48
2019-02-24T04:42:17.378Z,0.29
2019-02-24T04:44:49.342Z,0.29
2019-02-24T04:47:21.332Z,0.31
2019-02-24T04:49:53.180Z,0.35
2019-02-24T04:52:25.129Z,0.36
2019-02-24T04:54:56.494Z,0.43
2019-02-24T04:57:27.717Z,0.39
2019-02-24T04:59:59.370Z,0.56
2019-02-24T05:02:30.699Z,0.56
2019-02-24T05:05:01.468Z,0.53
2019-02-24T05:07:33.328Z,0.55
2019-02-24T05:10:05.736Z,0.43
2019-02-24T05:12:37.128Z,0.54
2019-02-24T05:15:08.201Z,0.63
2019-02-24T05:17:42.785Z,0.67
2019-02-24T05:20:14.489Z,0.62
2019-02-24T05:22:45.647Z,0.61
2019-02-24T05:25:17.060Z,0.53
2019-02-24T05:27:51.500Z,0.39
2019-02-24T05:30:23.200Z,0.35
2019-02-24T05:32:54.340Z,0.35
2019-02-24T05:35:25.584Z,0.27
2019-02-24T05:37:57.080Z,0.20
2019-02-24T05:40:29.511Z,0.26
2019-02-24T05:43:00.680Z,0.26
2019-02-24T05:45:32.539Z,0.26
2019-02-24T05:48:04.330Z,0.30
2019-02-24T05:50:36.381Z,0.19
2019-02-24T05:53:08.462Z,0.11
2019-02-24T05:55:40.742Z,0.11
2019-02-24T05:58:13.213Z,0.02
2019-02-24T06:00:44.898Z,0.06
2019-02-24T06:03:18.367Z,0.03
2019-02-24T06:05:49.137Z,0.03
2019-02-24T06:08:21.211Z,0.05
2019-02-24T06:10:52.511Z,0.10
2019-02-24T06:13:23.779Z,0.04
2019-02-24T06:15:54.986Z,0.02
2019-02-24T06:18:26.757Z,0.08
2019-02-24T06:20:58.115Z,0.03
2019-02-24T06:23:29.584Z,-0.05
2019-02-24T06:26:01.682Z,0.12
2019-02-24T06:28:33.513Z,0.17
2019-02-24T06:31:06.335Z,0.23
2019-02-24T06:33:37.795Z,0.29
2019-02-24T06:36:08.765Z,0.30
2019-02-24T06:38:40.264Z,0.35
2019-02-24T06:41:11.705Z,0.44
2019-02-24T06:43:43.282Z,0.41
2019-02-24T06:46:15.006Z,0.38
2019-02-24T06:48:47.351Z,0.42
2019-02-24T06:51:18.744Z,0.43
2019-02-24T06:53:49.586Z,0.44
2019-02-24T06:56:20.861Z,0.45
2019-02-24T06:58:52.186Z,0.42
2019-02-24T07:01:23.559Z,0.31
2019-02-24T07:03:55.092Z,0.42
2019-02-24T07:06:26.853Z,0.32
2019-02-24T07:08:57.560Z,0.51
2019-02-24T07:11:29.213Z,0.54
2019-02-24T07:14:00.758Z,0.57
2019-02-24T07:16:31.867Z,0.55
2019-02-24T07:19:03.657Z,0.56
2019-02-24T07:21:35.222Z,0.38
2019-02-24T07:24:06.734Z,0.67
2019-02-24T07:26:38.822Z,0.75
2019-02-24T07:29:10.304Z,0.76
2019-02-24T07:31:42.262Z,0.76
2019-02-24T07:34:13.217Z,0.78
2019-02-24T07:36:44.395Z,0.81
2019-02-24T07:39:16.333Z,0.84
2019-02-24T07:41:47.919Z,0.81
2019-02-24T07:44:19.116Z,0.91
2019-02-24T07:46:50.435Z,0.79
2019-02-24T07:49:21.849Z,0.97
2019-02-24T07:51:53.581Z,0.99
2019-02-24T07:54:24.954Z,0.96
2019-02-24T07:56:56.236Z,1.00
2019-02-24T07:59:27.648Z,1.11
2019-02-24T08:01:58.867Z,1.11
2019-02-24T08:04:30.598Z,1.05
2019-02-24T08:07:02.106Z,1.12
2019-02-24T08:09:34.818Z,1.11
2019-02-24T08:12:05.983Z,1.23
2019-02-24T08:14:37.263Z,1.33
2019-02-24T08:17:08.450Z,1.43
2019-02-24T08:19:39.649Z,1.46
2019-02-24T08:22:12.098Z,1.50
2019-02-24T08:24:43.155Z,1.47
2019-02-24T08:27:15.274Z,1.47
2019-02-24T08:29:46.609Z,1.49
2019-02-24T08:32:18.465Z,1.55
2019-02-24T08:34:50.098Z,1.62
2019-02-24T08:37:21.885Z,1.51
2019-02-24T08:39:53.946Z,1.58
2019-02-24T08:42:25.969Z,1.59
2019-02-24T08:44:57.579Z,1.58
2019-02-24T08:47:28.604Z,1.57
2019-02-24T08:50:00.596Z,1.65
2019-02-24T08:52:32.847Z,1.65
2019-02-24T08:55:03.660Z,1.74
2019-02-24T08:57:35.262Z,1.87
2019-02-24T09:00:11.067Z,1.99
2019-02-24T09:02:42.400Z,2.16
2019-02-24T09:05:13.857Z,2.31
2019-02-24T09:07:45.629Z,2.40
2019-02-24T09:10:18.286Z,2.50
2019-02-24T09:12:49.729Z,2.62
2019-02-24T09:15:21.582Z,2.73
2019-02-24T09:17:53.092Z,2.82
2019-02-24T09:20:23.989Z,2.93
2019-02-24T09:22:55.423Z,3.07
2019-02-24T09:25:26.656Z,3.21
2019-02-24T09:27:59.326Z,3.32
2019-02-24T09:30:31.324Z,3.41
2019-02-24T09:33:02.316Z,3.50
2019-02-24T09:35:33.913Z,3.60
2019-02-24T09:38:05.193Z,3.70
2019-02-24T09:40:36.481Z,3.83
2019-02-24T09:43:07.582Z,3.91
2019-02-24T09:45:39.647Z,4.00
2019-02-24T09:48:11.142Z,4.06
2019-02-24T09:50:43.064Z,4.04
2019-02-24T09:53:16.344Z,4.09
2019-02-24T09:55:47.109Z,4.14
2019-02-24T09:58:18.202Z,4.16
2019-02-24T10:00:50.431Z,4.19
2019-02-24T10:03:22.327Z,4.27
2019-02-24T10:05:53.619Z,4.32
2019-02-24T10:08:26.101Z,4.31
2019-02-24T10:10:59.405Z,4.31
2019-02-24T10:13:30.828Z,4.27
2019-02-24T10:16:03.006Z,4.25
2019-02-24T10:18:33.786Z,4.23
2019-02-24T10:21:05.494Z,4.17
2019-02-24T10:23:37.888Z,4.18
2019-02-24T10:26:09.412Z,4.24
2019-02-24T10:28:40.735Z,4.24
2019-02-24T10:31:19.604Z,4.24
2019-02-24T10:33:45.589Z,4.32
2019-02-24T10:36:17.692Z,4.46
2019-02-24T10:38:52.581Z,4.68
2019-02-24T10:41:24.733Z,4.90
2019-02-24T10:43:56.675Z,5.00
2019-02-24T10:46:28.418Z,5.24
2019-02-24T10:49:03.681Z,5.45
2019-02-24T10:51:34.077Z,5.60
2019-02-24T10:54:05.620Z,5.71
2019-02-24T10:56:37.538Z,5.88
2019-02-24T10:59:07.878Z,6.09
2019-02-24T11:01:38.129Z,6.22
2019-02-24T11:04:08.432Z,6.32
2019-02-24T11:06:39.405Z,6.42
2019-02-24T11:09:11.577Z,6.47
2019-02-24T11:11:43.816Z,6.46
2019-02-24T11:14:15.395Z,6.52
2019-02-24T11:16:46.628Z,6.54
2019-02-24T11:19:18.497Z,6.48
2019-02-24T11:21:49.614Z,6.43
2019-02-24T11:24:20.933Z,6.62
2019-02-24T11:26:52.220Z,6.72
2019-02-24T11:29:24.464Z,6.92
2019-02-24T11:31:57.973Z,7.23
2019-02-24T11:34:29.615Z,7.34
2019-02-24T11:37:01.658Z,7.35
2019-02-24T11:39:33.278Z,7.34
2019-02-24T11:42:04.718Z,7.48
2019-02-24T11:44:38.385Z,7.64
2019-02-24T11:47:09.878Z,7.72
2019-02-24T11:49:41.814Z,7.91
2019-02-24T11:52:12.708Z,8.09
2019-02-24T11:54:45.545Z,8.15
2019-02-24T11:57:17.418Z,7.99
2019-02-24T11:59:48.500Z,7.92
2019-02-24T12:02:20.036Z,7.75
2019-02-24T12:04:50.956Z,7.82
2019-02-24T12:07:22.776Z,7.83
2019-02-24T12:09:53.575Z,7.88
2019-02-24T12:12:24.490Z,7.92
2019-02-24T12:14:55.265Z,7.88
2019-02-24T12:17:26.992Z,7.97
2019-02-24T12:20:00.428Z,8.01
2019-02-24T12:22:31.072Z,8.02
2019-02-24T12:25:01.328Z,7.96
2019-02-24T12:27:32.865Z,7.91
2019-02-24T12:30:03.215Z,7.94
2019-02-24T12:32:33.567Z,8.01
2019-02-24T12:35:04.430Z,8.12
2019-02-24T12:37:35.370Z,8.18
2019-02-24T12:40:09.290Z,8.28
2019-02-24T12:42:40.656Z,8.35
2019-02-24T12:45:12.027Z,8.35
2019-02-24T12:47:42.342Z,8.31
2019-02-24T12:50:14.501Z,8.35
2019-02-24T12:52:45.852Z,8.35
2019-02-24T12:55:16.127Z,8.38
2019-02-24T12:57:46.465Z,8.41
2019-02-24T13:00:20.495Z,8.49
2019-02-24T13:02:51.490Z,8.57
2019-02-24T13:05:21.766Z,8.66
2019-02-24T13:07:52.031Z,8.75
2019-02-24T13:10:22.339Z,9.00
2019-02-24T13:12:52.758Z,9.11
2019-02-24T13:15:23.565Z,9.18
2019-02-24T13:17:55.655Z,9.21
2019-02-24T13:20:26.715Z,9.07
2019-02-24T13:22:58.675Z,8.91
2019-02-24T13:25:30.543Z,8.81
2019-02-24T13:28:01.816Z,8.84
2019-02-24T13:30:32.940Z,8.85
2019-02-24T13:33:04.888Z,8.85
2019-02-24T13:35:36.380Z,8.84
2019-02-24T13:38:07.227Z,8.85
2019-02-24T13:40:39.353Z,8.85
2019-02-24T13:43:11.681Z,8.87
2019-02-24T13:45:42.820Z,8.87
2019-02-24T13:48:14.490Z,8.79
2019-02-24T13:50:46.451Z,8.81
2019-02-24T13:53:17.397Z,8.82
2019-02-24T13:55:48.454Z,8.91
2019-02-24T13:58:21.658Z,8.97
2019-02-24T14:00:54.822Z,9.03
2019-02-24T14:03:30.235Z,9.03
2019-02-24T14:06:01.640Z,9.09
2019-02-24T14:08:33.581Z,9.09
2019-02-24T14:11:04.634Z,9.19
2019-02-24T14:13:36.531Z,9.31
2019-02-24T14:16:07.454Z,9.38
2019-02-24T14:18:39.067Z,9.44
2019-02-24T14:21:10.478Z,9.36
2019-02-24T14:23:41.672Z,9.34
2019-02-24T14:26:13.925Z,9.39
2019-02-24T14:28:45.282Z,9.52
2019-02-24T14:31:17.501Z,9.52
2019-02-24T14:33:48.556Z,9.55
2019-02-24T14:36:19.909Z,9.61
2019-02-24T14:38:51.807Z,9.62
2019-02-24T14:41:22.708Z,9.57
2019-02-24T14:43:54.566Z,9.56
2019-02-24T14:46:25.986Z,9.61
2019-02-24T14:48:57.222Z,9.63
2019-02-24T14:51:29.177Z,9.65
2019-02-24T14:54:00.718Z,9.61
2019-02-24T14:56:33.117Z,9.61
2019-02-24T14:59:05.593Z,9.58
2019-02-24T15:01:37.440Z,9.55
2019-02-24T15:04:10.116Z,9.53
2019-02-24T15:06:41.657Z,9.51
2019-02-24T15:09:13.147Z,9.53
2019-02-24T15:11:45.174Z,9.51
2019-02-24T15:14:16.503Z,9.48
2019-02-24T15:16:47.951Z,9.49
2019-02-24T15:19:19.632Z,9.51
2019-02-24T15:21:51.940Z,9.55
2019-02-24T15:24:23.890Z,9.59
2019-02-24T15:26:56.833Z,9.58
2019-02-24T15:29:28.730Z,9.55
2019-02-24T15:32:00.288Z,9.56
2019-02-24T15:34:31.618Z,9.47
2019-02-24T15:37:03.150Z,9.42
2019-02-24T15:39:35.795Z,9.39
2019-02-24T15:42:08.226Z,9.32
2019-02-24T15:44:38.968Z,9.20
2019-02-24T15:47:10.192Z,9.13
2019-02-24T15:49:41.870Z,9.04
2019-02-24T15:52:13.757Z,8.95
2019-02-24T15:54:45.508Z,8.91
2019-02-24T15:57:17.786Z,8.69
2019-02-24T15:59:48.985Z,8.55
2019-02-24T16:02:21.127Z,8.38
2019-02-24T16:04:52.906Z,8.27
2019-02-24T16:07:24.723Z,8.11
2019-02-24T16:09:55.074Z,7.96
2019-02-24T16:12:25.430Z,7.82
2019-02-24T16:14:55.779Z,7.67
2019-02-24T16:17:26.116Z,7.49
2019-02-24T16:19:56.792Z,7.35
2019-02-24T16:22:27.247Z,7.17
2019-02-24T16:24:57.510Z,6.98
2019-02-24T16:27:27.851Z,6.88
2019-02-24T16:29:58.141Z,6.73
2019-02-24T16:32:28.479Z,6.62
2019-02-24T16:34:58.945Z,6.52
2019-02-24T16:37:29.190Z,6.36
2019-02-24T16:39:59.473Z,6.17
2019-02-24T16:42:30.304Z,6.09
2019-02-24T16:45:01.344Z,6.04
2019-02-24T16:47:33.184Z,5.86
2019-02-24T16:50:06.833Z,5.69
2019-02-24T16:52:37.581Z,5.69
2019-02-24T16:55:10.533Z,5.65
2019-02-24T16:57:40.971Z,5.43
2019-02-24T17:00:14.816Z,5.44
2019-02-24T17:02:45.661Z,5.36
2019-02-24T17:05:16.026Z,5.30
2019-02-24T17:07:46.383Z,5.18
2019-02-24T17:10:19.466Z,5.00
2019-02-24T17:12:50.335Z,4.92
2019-02-24T17:15:21.700Z,4.83
2019-02-24T17:17:52.014Z,4.81
2019-02-24T17:20:24.521Z,4.70
2019-02-24T17:22:54.930Z,4.60
2019-02-24T17:25:25.204Z,4.58
2019-02-24T17:27:55.572Z,4.55
2019-02-24T17:30:26.929Z,4.36
2019-02-24T17:32:57.203Z,4.31
2019-02-24T17:35:27.511Z,4.16
2019-02-24T17:37:58.337Z,4.15
2019-02-24T17:40:28.687Z,4.01
2019-02-24T17:42:59.200Z,3.94
2019-02-24T17:45:29.539Z,3.91
2019-02-24T17:47:59.976Z,3.88
2019-02-24T17:50:30.529Z,3.78
2019-02-24T17:53:00.828Z,3.70
2019-02-24T17:55:31.176Z,3.67
2019-02-24T17:58:01.656Z,3.65
2019-02-24T18:00:33.672Z,3.61
2019-02-24T18:03:04.904Z,3.58
2019-02-24T18:05:36.712Z,3.51
2019-02-24T18:08:08.798Z,3.50
2019-02-24T18:10:39.916Z,3.43
2019-02-24T18:13:11.344Z,3.39
2019-02-24T18:15:42.358Z,3.29
2019-02-24T18:18:12.643Z,3.33
2019-02-24T18:20:43.576Z,3.23
2019-02-24T18:23:14.322Z,3.24
2019-02-24T18:25:44.675Z,3.17
2019-02-24T18:28:15.060Z,3.13
2019-02-24T18:30:45.470Z,3.06
2019-02-24T18:33:17.004Z,2.98
2019-02-24T18:35:47.669Z,3.01
2019-02-24T18:38:17.972Z,2.99
2019-02-24T18:40:48.269Z,2.95
2019-02-24T18:43:18.769Z,2.93
2019-02-24T18:45:49.071Z,2.93
2019-02-24T18:48:19.775Z,2.78
2019-02-24T18:50:52.287Z,2.77
2019-02-24T18:53:25.510Z,2.76
2019-02-24T18:55:57.965Z,2.70
2019-02-24T18:58:30.351Z,2.66
2019-02-24T19:01:05.175Z,2.59
2019-02-24T19:03:37.456Z,2.62
2019-02-24T19:06:08.602Z,2.62
2019-02-24T19:08:39.162Z,2.62
2019-02-24T19:11:10.136Z,2.59
2019-02-24T19:13:42.382Z,2.54
2019-02-24T19:16:13.224Z,2.50
2019-02-24T19:18:46.482Z,2.41
2019-02-24T19:21:18.294Z,2.42
2019-02-24T19:23:50.038Z,2.40
2019-02-24T19:26:20.345Z,2.29
2019-02-24T19:28:51.097Z,2.23
2019-02-24T19:31:22.443Z,2.20
2019-02-24T19:33:54.116Z,2.14
2019-02-24T19:36:25.543Z,2.22
2019-02-24T19:38:56.165Z,2.10
2019-02-24T19:41:27.103Z,2.05
2019-02-24T19:43:59.049Z,2.00
2019-02-24T19:46:30.984Z,1.98
2019-02-24T19:49:03.063Z,2.00
2019-02-24T19:51:34.435Z,2.01
2019-02-24T19:54:06.863Z,1.98
2019-02-24T19:56:39.138Z,2.08
2019-02-24T19:59:10.824Z,2.24
2019-02-24T20:01:42.123Z,2.38
2019-02-24T20:04:16.281Z,2.43
2019-02-24T20:06:46.933Z,2.64
2019-02-24T20:09:18.675Z,2.80
2019-02-24T20:11:49.523Z,2.92
2019-02-24T20:14:20.963Z,2.90
2019-02-24T20:16:52.881Z,2.96
2019-02-24T20:19:25.187Z,2.98
2019-02-24T20:22:01.984Z,2.94
2019-02-24T20:24:33.772Z,2.91
2019-02-24T20:27:06.736Z,2.94
2019-02-24T20:29:38.102Z,2.92
2019-02-24T20:32:09.220Z,2.95
2019-02-24T20:34:40.447Z,2.99
2019-02-24T20:37:11.523Z,2.96
2019-02-24T20:39:43.222Z,2.84
2019-02-24T20:42:14.804Z,2.77
2019-02-24T20:44:46.356Z,2.78
2019-02-24T20:47:18.484Z,2.69
2019-02-24T20:49:51.224Z,2.69
2019-02-24T20:52:22.941Z,2.66
2019-02-24T20:54:54.164Z,2.74
2019-02-24T20:57:25.524Z,2.78
2019-02-24T20:59:56.042Z,2.82
2019-02-24T21:02:26.610Z,2.82
2019-02-24T21:04:58.638Z,2.81
2019-02-24T21:07:30.580Z,2.76
2019-02-24T21:10:02.049Z,2.69
2019-02-24T21:12:32.892Z,2.61
2019-02-24T21:15:05.141Z,2.56
2019-02-24T21:17:36.576Z,2.55
2019-02-24T21:20:10.722Z,2.55
2019-02-24T21:22:42.183Z,2.50
2019-02-24T21:25:13.698Z,2.49
2019-02-24T21:27:44.271Z,2.46
2019-02-24T21:30:17.069Z,2.44
2019-02-24T21:32:48.902Z,2.36
2019-02-24T21:35:21.122Z,2.31
2019-02-24T21:37:53.282Z,2.27
2019-02-24T21:40:27.205Z,2.19
2019-02-24T21:43:05.225Z,2.14
2019-02-24T21:45:37.002Z,2.11
2019-02-24T21:48:08.275Z,2.05
2019-02-24T21:50:39.725Z,2.02
2019-02-24T21:53:10.933Z,1.95
2019-02-24T21:55:43.657Z,1.94
2019-02-24T21:58:14.828Z,1.91
2019-02-24T22:00:47.085Z,1.88
2019-02-24T22:03:23.335Z,1.85
2019-02-24T22:05:56.712Z,1.79
2019-02-24T22:08:27.013Z,1.71
2019-02-24T22:10:58.288Z,1.75
2019-02-24T22:13:29.906Z,1.72
2019-02-24T22:16:01.644Z,1.70
2019-02-24T22:18:35.502Z,1.67
2019-02-24T22:21:07.701Z,1.64
2019-02-24T22:23:38.627Z,1.59
2019-02-24T22:26:09.501Z,1.51
2019-02-24T22:28:40.704Z,1.43
2019-02-24T22:31:12.068Z,1.40
2019-02-24T22:33:43.388Z,1.35
2019-02-24T22:36:13.850Z,1.26
2019-02-24T22:38:44.642Z,1.17
2019-02-24T22:41:15.683Z,1.04
2019-02-24T22:43:47.676Z,1.01
2019-02-24T22:46:19.346Z,1.03
2019-02-24T22:48:50.855Z,0.98
2019-02-24T22:51:23.086Z,0.96
2019-02-24T22:53:54.486Z,1.00
2019-02-24T22:56:25.089Z,1.03
2019-02-24T22:58:57.303Z,1.06
2019-02-24T23:01:28.754Z,1.09
2019-02-24T23:04:04.964Z,1.18
2019-02-24T23:06:36.921Z,1.27
2019-02-24T23:09:09.511Z,1.26
2019-02-24T23:11:41.755Z,1.24
2019-02-24T23:14:12.568Z,1.24
2019-02-24T23:16:43.374Z,1.29
2019-02-24T23:19:15.574Z,1.28
2019-02-24T23:21:46.368Z,1.28
2019-02-24T23:24:17.030Z,1.29
2019-02-24T23:26:48.303Z,1.29
2019-02-24T23:29:20.401Z,1.29
2019-02-24T23:31:51.611Z,1.23
2019-02-24T23:34:22.701Z,1.19
2019-02-24T23:36:53.629Z,1.14
2019-02-24T23:39:24.128Z,1.09
2019-02-24T23:41:55.586Z,1.12
2019-02-24T23:44:26.401Z,1.17
2019-02-24T23:46:57.866Z,1.21
2019-02-24T23:49:29.060Z,1.25
2019-02-24T23:51:59.873Z,1.30
2019-02-24T23:54:30.872Z,1.34
2019-02-24T23:57:01.663Z,1.33
2019-02-24T23:59:32.612Z,1.32
